createdAt,value
2017-09-29T00:02:26.419Z,11.88
2017-09-29T00:04:54.149Z,12.13
2017-09-29T00:07:21.949Z,12.35
2017-09-29T00:09:49.821Z,12.80
2017-09-29T00:12:17.683Z,10.93
2017-09-29T00:14:45.550Z,11.27
2017-09-29T00:17:13.422Z,12.60
2017-09-29T00:19:41.285Z,12.48
2017-09-29T00:22:09.152Z,11.55
2017-09-29T00:24:37.123Z,12.85
2017-09-29T00:27:04.989Z,12.18
2017-09-29T00:29:32.790Z,12.48
2017-09-29T00:32:01.366Z,13.57
2017-09-29T00:34:30.026Z,14.65
2017-09-29T00:36:57.892Z,16.58
2017-09-29T00:39:25.759Z,14.75
2017-09-29T00:41:53.627Z,14.10
2017-09-29T00:44:21.596Z,14.90
2017-09-29T00:46:49.465Z,15.02
2017-09-29T00:49:17.330Z,17.05
2017-09-29T00:51:45.306Z,16.23
2017-09-29T00:54:13.168Z,15.70
2017-09-29T00:56:41.035Z,15.10
2017-09-29T00:59:08.902Z,16.37
2017-09-29T01:01:36.770Z,15.60
2017-09-29T01:04:04.636Z,14.05
2017-09-29T01:06:32.606Z,14.65
2017-09-29T01:09:00.883Z,14.85
2017-09-29T01:11:31.721Z,16.17
2017-09-29T01:13:59.587Z,16.55
2017-09-29T01:16:27.455Z,15.20
2017-09-29T01:18:55.425Z,15.43
2017-09-29T01:21:23.394Z,16.25
2017-09-29T01:23:51.364Z,19.20
2017-09-29T01:26:20.083Z,17.23
2017-09-29T01:28:48.737Z,16.23
2017-09-29T01:31:16.606Z,15.13
2017-09-29T01:33:44.472Z,17.50
2017-09-29T01:36:12.340Z,17.77
2017-09-29T01:38:40.206Z,16.98
2017-09-29T01:41:08.176Z,16.60
2017-09-29T01:43:36.145Z,16.95
2017-09-29T01:46:04.013Z,14.57
2017-09-29T01:48:31.880Z,16.48
2017-09-29T01:50:59.850Z,16.95
2017-09-29T01:53:27.752Z,15.68
2017-09-29T01:55:56.510Z,14.85
2017-09-29T01:58:24.301Z,15.30
2017-09-29T02:00:52.243Z,14.02
2017-09-29T02:03:20.151Z,16.33
2017-09-29T02:05:48.799Z,14.85
2017-09-29T02:08:16.769Z,13.95
2017-09-29T02:10:44.634Z,13.70
2017-09-29T02:13:12.499Z,14.15
2017-09-29T02:15:40.367Z,14.30
2017-09-29T02:18:08.339Z,14.68
2017-09-29T02:20:36.305Z,14.18
2017-09-29T02:23:04.173Z,13.30
2017-09-29T02:25:32.039Z,15.07
2017-09-29T02:27:59.907Z,14.07
2017-09-29T02:30:27.774Z,15.70
2017-09-29T02:32:55.745Z,15.23
2017-09-29T02:35:23.714Z,15.13
2017-09-29T02:37:51.683Z,15.05
2017-09-29T02:40:19.653Z,15.75
2017-09-29T02:42:47.519Z,15.57
2017-09-29T02:45:15.489Z,16.75
2017-09-29T02:47:43.356Z,15.32
2017-09-29T02:50:11.158Z,16.33
2017-09-29T02:52:39.811Z,16.05
2017-09-29T02:55:07.779Z,15.35
2017-09-29T02:57:40.498Z,16.40
2017-09-29T03:00:11.870Z,16.42
2017-09-29T03:02:41.530Z,15.88
2017-09-29T03:05:11.669Z,16.27
2017-09-29T03:07:39.607Z,15.77
2017-09-29T03:10:07.578Z,15.10
2017-09-29T03:12:35.445Z,15.27
2017-09-29T03:15:03.312Z,14.82
2017-09-29T03:17:31.282Z,16.98
2017-09-29T03:19:59.149Z,15.60
2017-09-29T03:22:27.119Z,15.75
2017-09-29T03:24:54.987Z,16.60
2017-09-29T03:27:22.852Z,17.58
2017-09-29T03:29:50.721Z,17.35
2017-09-29T03:32:18.588Z,15.85
2017-09-29T03:34:46.456Z,17.33
2017-09-29T03:37:14.321Z,19.30
2017-09-29T03:39:42.190Z,17.83
2017-09-29T03:42:09.991Z,19.58
2017-09-29T03:44:38.641Z,18.83
2017-09-29T03:47:06.610Z,16.95
2017-09-29T03:49:34.514Z,19.30
2017-09-29T03:52:04.022Z,16.33
2017-09-29T03:54:34.409Z,19.08
2017-09-29T03:57:04.810Z,21.17
2017-09-29T03:59:32.706Z,22.85
2017-09-29T04:02:00.573Z,25.65
2017-09-29T04:04:28.440Z,25.67
2017-09-29T04:06:56.308Z,24.80
2017-09-29T04:09:24.206Z,23.75
2017-09-29T04:11:52.862Z,23.77
2017-09-29T04:14:20.733Z,20.50
2017-09-29T04:16:48.699Z,20.77
2017-09-29T04:19:16.876Z,18.90
2017-09-29T04:21:45.555Z,24.05
2017-09-29T04:24:15.846Z,20.05
2017-09-29T04:26:46.198Z,20.15
2017-09-29T04:29:14.386Z,19.33
2017-09-29T04:31:42.353Z,20.35
2017-09-29T04:34:10.226Z,19.60
2017-09-29T04:36:38.089Z,20.52
2017-09-29T04:39:05.957Z,20.45
2017-09-29T04:41:33.823Z,21.10
2017-09-29T04:44:01.691Z,19.33
2017-09-29T04:46:29.561Z,20.17
2017-09-29T04:48:57.426Z,19.08
2017-09-29T04:51:25.293Z,18.30
2017-09-29T04:53:53.160Z,17.80
2017-09-29T04:56:21.027Z,19.37
2017-09-29T04:58:48.901Z,19.20
2017-09-29T05:01:16.864Z,19.33
2017-09-29T05:03:44.733Z,19.05
2017-09-29T05:06:12.598Z,18.40
2017-09-29T05:08:40.467Z,19.30
2017-09-29T05:11:08.333Z,16.92
2017-09-29T05:13:36.201Z,19.05
2017-09-29T05:16:04.177Z,18.60
2017-09-29T05:18:32.048Z,19.35
2017-09-29T05:20:59.907Z,19.58
2017-09-29T05:23:27.775Z,20.35
2017-09-29T05:25:55.645Z,18.85
2017-09-29T05:28:23.512Z,19.48
2017-09-29T05:30:51.378Z,19.05
2017-09-29T05:33:19.243Z,18.52
2017-09-29T05:35:47.111Z,19.23
2017-09-29T05:38:14.977Z,19.70
2017-09-29T05:40:42.844Z,19.50
2017-09-29T05:43:10.711Z,17.30
2017-09-29T05:45:38.578Z,18.45
2017-09-29T05:48:06.549Z,18.95
2017-09-29T05:50:34.415Z,18.67
2017-09-29T05:53:02.281Z,17.92
2017-09-29T05:55:30.151Z,18.55
2017-09-29T05:57:58.017Z,20.60
2017-09-29T06:00:25.885Z,18.35
2017-09-29T06:02:53.752Z,17.90
2017-09-29T06:05:21.725Z,18.02
2017-09-29T06:07:49.589Z,19.83
2017-09-29T06:10:17.457Z,17.83
2017-09-29T06:12:45.324Z,17.30
2017-09-29T06:15:13.192Z,18.08
2017-09-29T06:17:41.058Z,18.60
2017-09-29T06:20:08.926Z,17.83
2017-09-29T06:22:36.797Z,18.17
2017-09-29T06:25:04.661Z,20.02
2017-09-29T06:27:32.630Z,19.45
2017-09-29T06:30:00.498Z,17.60
2017-09-29T06:32:28.366Z,19.50
2017-09-29T06:34:56.233Z,17.85
2017-09-29T06:37:24.100Z,16.45
2017-09-29T06:39:52.172Z,17.40
2017-09-29T06:42:20.039Z,16.65
2017-09-29T06:44:47.907Z,16.40
2017-09-29T06:47:15.774Z,17.27
2017-09-29T06:49:43.640Z,17.40
2017-09-29T06:52:11.611Z,18.10
2017-09-29T06:54:39.478Z,17.62
2017-09-29T06:57:07.345Z,16.62
2017-09-29T06:59:35.214Z,17.00
2017-09-29T07:02:03.080Z,16.95
2017-09-29T07:04:30.947Z,17.25
2017-09-29T07:06:58.814Z,18.15
2017-09-29T07:09:26.610Z,16.77
2017-09-29T07:11:54.446Z,17.73
2017-09-29T07:14:22.315Z,17.80
2017-09-29T07:16:50.181Z,18.75
2017-09-29T07:19:18.043Z,16.77
2017-09-29T07:21:45.915Z,17.60
2017-09-29T07:24:13.784Z,16.37
2017-09-29T07:26:43.863Z,14.98
2017-09-29T07:29:12.887Z,16.62
2017-09-29T07:31:43.777Z,17.85
2017-09-29T07:34:12.423Z,15.20
2017-09-29T07:36:40.294Z,16.60
2017-09-29T07:39:08.156Z,17.60
2017-09-29T07:41:36.023Z,18.15
2017-09-29T07:44:03.892Z,18.80
2017-09-29T07:46:31.757Z,18.02
2017-09-29T07:48:59.624Z,19.65
2017-09-29T07:51:27.530Z,19.80
2017-09-29T07:53:56.178Z,17.95
2017-09-29T07:56:24.045Z,19.80
2017-09-29T07:58:51.912Z,19.02
2017-09-29T08:01:19.779Z,18.60
2017-09-29T08:03:47.647Z,18.45
2017-09-29T08:06:15.514Z,18.12
2017-09-29T08:08:43.381Z,17.00
2017-09-29T08:11:11.249Z,15.43
2017-09-29T08:13:39.116Z,16.12
2017-09-29T08:16:07.086Z,18.35
2017-09-29T08:18:34.954Z,17.25
2017-09-29T08:21:02.821Z,17.60
2017-09-29T08:23:30.688Z,16.62
2017-09-29T08:25:58.555Z,16.00
2017-09-29T08:28:26.423Z,17.65
2017-09-29T08:30:54.290Z,18.58
2017-09-29T08:33:22.156Z,16.45
2017-09-29T08:35:50.034Z,19.12
2017-09-29T08:38:18.714Z,17.48
2017-09-29T08:40:46.581Z,16.17
2017-09-29T08:43:14.445Z,17.55
2017-09-29T08:45:42.319Z,18.08
2017-09-29T08:48:10.183Z,18.55
2017-09-29T08:50:38.052Z,17.80
2017-09-29T08:53:05.918Z,20.10
2017-09-29T08:55:33.782Z,18.10
2017-09-29T08:58:01.648Z,18.08
2017-09-29T09:00:29.515Z,19.12
2017-09-29T09:02:57.484Z,19.90
2017-09-29T09:05:25.353Z,19.65
2017-09-29T09:07:53.231Z,20.05
2017-09-29T09:10:21.087Z,19.23
2017-09-29T09:12:48.955Z,18.20
2017-09-29T09:15:16.923Z,17.75
2017-09-29T09:17:44.791Z,19.85
2017-09-29T09:20:12.762Z,19.37
2017-09-29T09:22:40.628Z,18.83
2017-09-29T09:25:08.496Z,18.33
2017-09-29T09:27:36.363Z,18.40
2017-09-29T09:30:04.231Z,18.27
2017-09-29T09:32:32.097Z,19.77
2017-09-29T09:34:59.965Z,19.02
2017-09-29T09:37:27.832Z,18.02
2017-09-29T09:39:55.625Z,18.85
2017-09-29T09:42:23.465Z,17.20
2017-09-29T09:44:51.333Z,18.80
2017-09-29T09:47:19.199Z,16.48
2017-09-29T09:49:47.168Z,16.02
2017-09-29T09:52:15.037Z,17.48
2017-09-29T09:54:42.903Z,18.00
2017-09-29T09:57:10.770Z,18.73
2017-09-29T09:59:38.639Z,18.20
2017-09-29T10:02:06.505Z,16.70
2017-09-29T10:04:34.373Z,15.77
2017-09-29T10:07:02.240Z,15.30
2017-09-29T10:09:30.108Z,15.10
2017-09-29T10:11:57.974Z,15.18
2017-09-29T10:14:25.843Z,12.60
2017-09-29T10:16:53.709Z,13.18
2017-09-29T10:19:21.680Z,14.90
2017-09-29T10:21:49.547Z,13.95
2017-09-29T10:24:17.515Z,15.05
2017-09-29T10:26:45.383Z,12.75
2017-09-29T10:29:13.355Z,10.93
2017-09-29T10:31:41.150Z,11.30
2017-09-29T10:34:09.805Z,12.85
2017-09-29T10:36:37.672Z,11.43
2017-09-29T10:39:05.539Z,10.95
2017-09-29T10:41:33.406Z,10.02
2017-09-29T10:44:01.277Z,9.15
2017-09-29T10:46:29.141Z,9.57
2017-09-29T10:48:57.111Z,9.48
2017-09-29T10:51:24.978Z,9.30
2017-09-29T10:53:53.051Z,10.15
2017-09-29T10:56:20.917Z,8.50
2017-09-29T10:58:48.785Z,9.40
2017-09-29T11:01:16.652Z,7.32
2017-09-29T11:03:44.520Z,9.82
2017-09-29T11:06:12.388Z,9.18
2017-09-29T11:08:40.257Z,9.48
2017-09-29T11:11:08.121Z,8.23
2017-09-29T11:13:35.989Z,8.70
2017-09-29T11:16:03.856Z,9.35
2017-09-29T11:18:31.827Z,10.13
2017-09-29T11:20:59.693Z,10.45
2017-09-29T11:23:27.559Z,10.82
2017-09-29T11:25:55.427Z,10.45
2017-09-29T11:28:23.294Z,10.20
2017-09-29T11:30:51.162Z,10.68
2017-09-29T11:33:19.030Z,9.98
2017-09-29T11:35:47.130Z,11.85
2017-09-29T11:38:14.968Z,12.13
2017-09-29T11:40:42.836Z,12.63
2017-09-29T11:43:10.703Z,8.93
2017-09-29T11:45:38.571Z,9.05
2017-09-29T11:48:06.643Z,8.23
2017-09-29T11:50:34.510Z,7.85
2017-09-29T11:53:02.384Z,8.82
2017-09-29T11:55:30.244Z,6.82
2017-09-29T11:57:58.112Z,7.78
2017-09-29T12:00:25.980Z,6.82
2017-09-29T12:02:53.851Z,6.53
2017-09-29T12:05:21.717Z,7.65
2017-09-29T12:07:49.584Z,8.40
2017-09-29T12:10:17.448Z,7.47
2017-09-29T12:12:45.319Z,6.53
2017-09-29T12:15:13.293Z,7.57
2017-09-29T12:17:41.154Z,5.95
2017-09-29T12:20:09.028Z,6.10
2017-09-29T12:22:37.605Z,7.12
2017-09-29T12:25:05.471Z,6.60
2017-09-29T12:27:33.339Z,5.68
2017-09-29T12:30:01.206Z,6.30
2017-09-29T12:32:29.073Z,5.32
2017-09-29T12:34:56.939Z,5.57
2017-09-29T12:37:24.807Z,5.10
2017-09-29T12:39:52.778Z,5.60
2017-09-29T12:42:20.645Z,5.85
2017-09-29T12:44:48.438Z,6.20
2017-09-29T12:47:16.277Z,5.57
2017-09-29T12:49:44.144Z,5.55
2017-09-29T12:52:12.011Z,6.45
2017-09-29T12:54:39.878Z,5.22
2017-09-29T12:57:07.746Z,4.80
2017-09-29T12:59:35.616Z,4.65
2017-09-29T13:02:03.481Z,4.00
2017-09-29T13:04:31.347Z,3.67
2017-09-29T13:06:59.214Z,3.83
2017-09-29T13:09:27.081Z,4.50
2017-09-29T13:11:54.950Z,3.95
2017-09-29T13:14:22.835Z,3.97
2017-09-29T13:16:50.683Z,5.07
2017-09-29T13:19:18.550Z,4.40
2017-09-29T13:21:46.425Z,4.35
2017-09-29T13:24:14.284Z,4.37
2017-09-29T13:26:42.153Z,4.07
2017-09-29T13:29:10.019Z,4.10
2017-09-29T13:31:37.887Z,4.35
2017-09-29T13:34:05.755Z,4.93
2017-09-29T13:36:33.622Z,4.05
2017-09-29T13:39:01.592Z,4.18
2017-09-29T13:41:29.459Z,4.20
2017-09-29T13:43:57.326Z,4.55
2017-09-29T13:46:25.193Z,4.65
2017-09-29T13:48:53.060Z,4.62
2017-09-29T13:51:20.928Z,4.28
2017-09-29T13:53:48.795Z,4.45
2017-09-29T13:56:16.592Z,3.80
2017-09-29T13:58:45.278Z,4.68
2017-09-29T14:01:13.114Z,3.53
2017-09-29T14:03:41.009Z,4.62
2017-09-29T14:06:08.849Z,4.28
2017-09-29T14:08:36.716Z,4.80
2017-09-29T14:11:05.306Z,4.18
2017-09-29T14:13:33.168Z,4.47
2017-09-29T14:16:01.035Z,4.07
2017-09-29T14:18:28.902Z,4.65
2017-09-29T14:20:56.769Z,3.92
2017-09-29T14:23:24.635Z,3.85
2017-09-29T14:25:52.502Z,3.65
2017-09-29T14:28:20.371Z,4.62
2017-09-29T14:30:48.244Z,3.78
2017-09-29T14:33:16.105Z,3.90
2017-09-29T14:35:43.971Z,4.00
2017-09-29T14:38:11.942Z,4.40
2017-09-29T14:40:39.809Z,4.10
2017-09-29T14:43:07.881Z,3.62
2017-09-29T14:45:35.748Z,3.95
2017-09-29T14:48:03.616Z,4.28
2017-09-29T14:50:31.483Z,4.00
2017-09-29T14:52:59.350Z,4.95
2017-09-29T14:55:27.218Z,3.90
2017-09-29T14:57:55.084Z,4.45
2017-09-29T15:00:22.953Z,3.70
2017-09-29T15:02:50.819Z,3.83
2017-09-29T15:05:18.688Z,5.12
2017-09-29T15:07:46.556Z,4.15
2017-09-29T15:10:14.421Z,4.12
2017-09-29T15:12:42.288Z,4.07
2017-09-29T15:15:10.155Z,4.00
2017-09-29T15:17:38.024Z,4.60
2017-09-29T15:20:05.891Z,4.53
2017-09-29T15:22:33.757Z,3.60
2017-09-29T15:25:01.728Z,4.78
2017-09-29T15:27:29.595Z,5.95
2017-09-29T15:29:57.461Z,10.27
2017-09-29T15:32:27.038Z,13.07
2017-09-29T15:34:54.940Z,7.62
2017-09-29T15:37:22.910Z,14.63
2017-09-29T15:39:50.813Z,12.18
2017-09-29T15:42:19.464Z,8.60
2017-09-29T15:44:47.779Z,8.20
2017-09-29T15:47:16.425Z,7.10
2017-09-29T15:49:44.291Z,5.12
2017-09-29T15:52:13.136Z,5.70
2017-09-29T15:54:40.948Z,4.20
2017-09-29T15:57:08.815Z,4.97
2017-09-29T15:59:36.682Z,4.43
2017-09-29T16:02:04.550Z,5.05
2017-09-29T16:04:32.426Z,4.70
2017-09-29T16:07:00.284Z,6.20
2017-09-29T16:09:28.151Z,5.65
2017-09-29T16:11:56.018Z,5.40
2017-09-29T16:14:23.886Z,5.10
2017-09-29T16:16:51.753Z,5.45
2017-09-29T16:19:19.621Z,4.47
2017-09-29T16:21:47.489Z,5.20
2017-09-29T16:24:15.356Z,4.75
2017-09-29T16:26:43.223Z,5.37
2017-09-29T16:29:11.089Z,5.53
2017-09-29T16:31:38.956Z,5.57
2017-09-29T16:34:06.824Z,5.35
2017-09-29T16:36:34.694Z,5.50
2017-09-29T16:39:02.559Z,5.15
2017-09-29T16:41:30.530Z,6.00
2017-09-29T16:44:00.599Z,5.78
2017-09-29T16:46:28.617Z,5.10
2017-09-29T16:48:56.591Z,5.40
2017-09-29T16:51:24.470Z,6.35
2017-09-29T16:53:52.425Z,6.03
2017-09-29T16:56:20.292Z,5.32
2017-09-29T16:58:48.160Z,5.25
2017-09-29T17:01:16.029Z,5.35
2017-09-29T17:03:43.894Z,5.37
2017-09-29T17:06:11.764Z,5.65
2017-09-29T17:08:40.864Z,5.85
2017-09-29T17:11:08.730Z,5.43
2017-09-29T17:13:37.719Z,5.93
2017-09-29T17:16:06.781Z,5.82
2017-09-29T17:18:34.682Z,4.95
2017-09-29T17:21:02.549Z,5.25
2017-09-29T17:23:30.417Z,5.30
2017-09-29T17:25:58.284Z,6.00
2017-09-29T17:28:26.150Z,5.68
2017-09-29T17:30:54.018Z,5.80
2017-09-29T17:33:21.886Z,6.25
2017-09-29T17:35:49.678Z,5.68
2017-09-29T17:38:17.518Z,5.87
2017-09-29T17:40:45.386Z,6.00
2017-09-29T17:43:13.463Z,5.95
2017-09-29T17:45:41.331Z,6.87
2017-09-29T17:48:09.192Z,6.35
2017-09-29T17:50:37.059Z,6.30
2017-09-29T17:53:04.926Z,5.85
2017-09-29T17:55:32.796Z,6.30
2017-09-29T17:58:00.660Z,5.80
2017-09-29T18:00:28.528Z,5.70
2017-09-29T18:02:56.497Z,5.60
2017-09-29T18:05:24.365Z,6.30
2017-09-29T18:07:52.233Z,6.40
2017-09-29T18:10:20.100Z,5.53
2017-09-29T18:12:47.966Z,5.22
2017-09-29T18:15:15.834Z,5.85
2017-09-29T18:17:43.704Z,6.05
2017-09-29T18:20:11.568Z,6.62
2017-09-29T18:22:39.436Z,6.53
2017-09-29T18:25:07.310Z,7.47
2017-09-29T18:27:35.186Z,9.02
2017-09-29T18:30:04.062Z,12.20
2017-09-29T18:32:31.929Z,9.75
2017-09-29T18:34:59.800Z,7.25
2017-09-29T18:37:27.664Z,7.10
2017-09-29T18:39:55.531Z,5.80
2017-09-29T18:42:23.407Z,6.82
2017-09-29T18:45:06.831Z,5.78
2017-09-29T18:47:34.699Z,7.15
2017-09-29T18:50:02.566Z,7.22
2017-09-29T18:52:30.435Z,6.78
2017-09-29T18:54:58.300Z,6.93
2017-09-29T18:57:26.269Z,7.18
2017-09-29T18:59:54.240Z,6.57
2017-09-29T19:02:22.214Z,6.75
2017-09-29T19:04:50.080Z,7.35
2017-09-29T19:07:17.945Z,6.65
2017-09-29T19:09:45.926Z,6.60
2017-09-29T19:12:13.785Z,6.25
2017-09-29T19:14:41.657Z,6.35
2017-09-29T19:17:09.519Z,6.40
2017-09-29T19:19:37.383Z,7.25
2017-09-29T19:22:05.251Z,6.95
2017-09-29T19:24:33.117Z,7.37
2017-09-29T19:27:00.984Z,7.10
2017-09-29T19:29:28.858Z,7.37
2017-09-29T19:31:56.721Z,6.80
2017-09-29T19:34:24.587Z,6.75
2017-09-29T19:36:52.463Z,6.05
2017-09-29T19:39:20.320Z,6.30
2017-09-29T19:41:48.115Z,5.65
2017-09-29T19:44:15.953Z,6.82
2017-09-29T19:46:43.820Z,6.87
2017-09-29T19:49:11.687Z,6.30
2017-09-29T19:51:39.555Z,6.57
2017-09-29T19:54:07.423Z,5.90
2017-09-29T19:56:35.289Z,5.70
2017-09-29T19:59:03.156Z,6.87
2017-09-29T20:01:31.023Z,6.05
2017-09-29T20:03:59.197Z,7.07
2017-09-29T20:06:27.098Z,6.30
2017-09-29T20:08:55.650Z,6.47
2017-09-29T20:11:24.439Z,6.72
2017-09-29T20:13:52.306Z,8.05
2017-09-29T20:16:20.174Z,7.20
2017-09-29T20:18:47.971Z,7.35
2017-09-29T20:21:16.625Z,7.80
2017-09-29T20:23:44.494Z,8.20
2017-09-29T20:26:12.366Z,9.77
2017-09-29T20:28:40.227Z,7.93
2017-09-29T20:31:08.196Z,7.97
2017-09-29T20:33:36.063Z,8.73
2017-09-29T20:36:03.931Z,5.97
2017-09-29T20:38:31.900Z,6.80
2017-09-29T20:40:59.768Z,6.80
2017-09-29T20:43:27.737Z,6.47
2017-09-29T20:45:55.604Z,8.38
2017-09-29T20:48:23.473Z,8.40
2017-09-29T20:50:51.339Z,7.60
2017-09-29T20:53:19.206Z,7.07
2017-09-29T20:55:47.177Z,7.40
2017-09-29T20:58:15.043Z,6.70
2017-09-29T21:00:42.839Z,6.22
2017-09-29T21:03:13.246Z,6.60
2017-09-29T21:05:44.216Z,7.35
2017-09-29T21:08:12.862Z,6.72
2017-09-29T21:10:40.729Z,6.45
2017-09-29T21:13:11.176Z,6.20
2017-09-29T21:15:41.768Z,6.95
2017-09-29T21:18:13.568Z,6.85
2017-09-29T21:21:00.445Z,7.07
2017-09-29T21:23:39.652Z,8.60
2017-09-29T21:26:10.315Z,8.40
2017-09-29T21:28:40.973Z,9.05
2017-09-29T21:31:12.636Z,7.70
2017-09-29T21:33:44.488Z,8.30
2017-09-29T21:36:15.579Z,7.65
2017-09-29T21:38:45.760Z,7.85
2017-09-29T21:41:26.060Z,7.37
2017-09-29T21:43:56.859Z,7.40
2017-09-29T21:46:27.569Z,7.28
2017-09-29T21:48:58.351Z,7.22
2017-09-29T21:51:28.684Z,7.10
2017-09-29T21:53:59.180Z,8.02
2017-09-29T21:56:27.691Z,7.62
2017-09-29T21:58:58.511Z,7.05
2017-09-29T22:01:26.460Z,7.35
2017-09-29T22:03:54.314Z,7.60
2017-09-29T22:06:22.283Z,7.20
2017-09-29T22:08:50.259Z,7.10
2017-09-29T22:11:18.120Z,7.05
2017-09-29T22:13:45.988Z,7.35
2017-09-29T22:16:13.855Z,6.50
2017-09-29T22:18:41.824Z,7.82
2017-09-29T22:21:09.691Z,7.60
2017-09-29T22:23:38.148Z,6.72
2017-09-29T22:26:06.144Z,7.93
2017-09-29T22:28:34.218Z,7.68
2017-09-29T22:31:02.242Z,6.87
2017-09-29T22:33:30.056Z,8.88
2017-09-29T22:35:57.923Z,7.05
2017-09-29T22:38:25.889Z,7.05
2017-09-29T22:40:53.864Z,6.65
2017-09-29T22:43:21.734Z,8.18
2017-09-29T22:45:49.602Z,7.03
2017-09-29T22:48:17.546Z,7.70
2017-09-29T22:50:45.432Z,7.20
2017-09-29T22:53:13.807Z,8.98
2017-09-29T22:55:41.677Z,7.85
2017-09-29T22:58:09.545Z,7.43
2017-09-29T23:00:37.411Z,8.25
2017-09-29T23:03:05.281Z,8.32
2017-09-29T23:05:33.148Z,8.60
2017-09-29T23:08:01.017Z,7.47
2017-09-29T23:10:28.890Z,7.62
2017-09-29T23:12:56.749Z,7.07
2017-09-29T23:15:24.652Z,7.85
2017-09-29T23:17:52.483Z,7.30
2017-09-29T23:20:20.350Z,7.50
2017-09-29T23:22:48.218Z,7.85
2017-09-29T23:25:16.085Z,7.25
2017-09-29T23:27:43.881Z,7.30
2017-09-29T23:30:12.435Z,8.82
2017-09-29T23:32:40.304Z,7.57
2017-09-29T23:35:08.174Z,8.00
2017-09-29T23:37:36.036Z,8.45
2017-09-29T23:40:03.910Z,9.02
2017-09-29T23:42:31.771Z,8.45
2017-09-29T23:44:59.638Z,8.20
2017-09-29T23:47:27.507Z,8.55
2017-09-29T23:49:55.372Z,8.55
2017-09-29T23:52:23.244Z,8.82
2017-09-29T23:54:51.106Z,9.27
2017-09-29T23:57:18.974Z,9.68
2017-09-29T23:59:46.841Z,11.70
